sensor_id;sensor_type;location;lat;lon;timestamp;P1;durP1;ratioP1;P2;durP2;ratioP2
13785;SDS011;47474;48.824;9.384;2023-05-10T00:02:15;3.17;;;2.17;;
13785;SDS011;47474;48.824;9.384;2023-05-10T00:04:42;2.53;;;1.90;;
13785;SDS011;47474;48.824;9.384;2023-05-10T00:07:08;1.77;;;1.67;;
13785;SDS011;47474;48.824;9.384;2023-05-10T00:09:35;2.08;;;1.88;;
13785;SDS011;47474;48.824;9.384;2023-05-10T00:12:01;2.95;;;1.58;;
13785;SDS011;47474;48.824;9.384;2023-05-10T00:14:28;3.25;;;1.80;;
13785;SDS011;47474;48.824;9.384;2023-05-10T00:16:56;1.92;;;1.83;;
13785;SDS011;47474;48.824;9.384;2023-05-10T00:19:22;3.42;;;1.88;;
13785;SDS011;47474;48.824;9.384;2023-05-10T00:21:49;2.17;;;1.42;;
13785;SDS011;47474;48.824;9.384;2023-05-10T00:24:15;3.38;;;1.50;;
13785;SDS011;47474;48.824;9.384;2023-05-10T00:26:42;3.85;;;1.17;;
13785;SDS011;47474;48.824;9.384;2023-05-10T00:29:08;0.90;;;0.90;;
13785;SDS011;47474;48.824;9.384;2023-05-10T00:31:35;2.63;;;1.02;;
13785;SDS011;47474;48.824;9.384;2023-05-10T00:34:02;0.70;;;0.70;;
13785;SDS011;47474;48.824;9.384;2023-05-10T00:36:29;2.55;;;0.90;;
13785;SDS011;47474;48.824;9.384;2023-05-10T00:38:56;3.08;;;0.75;;
13785;SDS011;47474;48.824;9.384;2023-05-10T00:41:22;0.68;;;0.60;;
13785;SDS011;47474;48.824;9.384;2023-05-10T00:43:49;1.50;;;0.50;;
13785;SDS011;47474;48.824;9.384;2023-05-10T00:46:15;0.70;;;0.70;;
13785;SDS011;47474;48.824;9.384;2023-05-10T00:48:42;0.50;;;0.50;;
13785;SDS011;47474;48.824;9.384;2023-05-10T00:51:10;0.55;;;0.50;;
13785;SDS011;47474;48.824;9.384;2023-05-10T00:53:37;0.40;;;0.40;;
13785;SDS011;47474;48.824;9.384;2023-05-10T00:56:03;0.40;;;0.40;;
13785;SDS011;47474;48.824;9.384;2023-05-10T00:58:30;0.50;;;0.50;;
13785;SDS011;47474;48.824;9.384;2023-05-10T01:00:57;0.40;;;0.40;;
13785;SDS011;47474;48.824;9.384;2023-05-10T01:03:24;0.33;;;0.33;;
13785;SDS011;47474;48.824;9.384;2023-05-10T01:05:50;0.50;;;0.50;;
13785;SDS011;47474;48.824;9.384;2023-05-10T01:08:18;1.37;;;0.40;;
13785;SDS011;47474;48.824;9.384;2023-05-10T01:10:45;0.30;;;0.30;;
13785;SDS011;47474;48.824;9.384;2023-05-10T01:13:14;1.83;;;0.40;;
13785;SDS011;47474;48.824;9.384;2023-05-10T01:15:46;0.50;;;0.50;;
13785;SDS011;47474;48.824;9.384;2023-05-10T01:18:12;2.07;;;0.60;;
13785;SDS011;47474;48.824;9.384;2023-05-10T01:20:40;0.50;;;0.50;;
13785;SDS011;47474;48.824;9.384;2023-05-10T01:23:11;1.77;;;0.50;;
13785;SDS011;47474;48.824;9.384;2023-05-10T01:26:06;1.63;;;0.50;;
13785;SDS011;47474;48.824;9.384;2023-05-10T01:28:44;0.57;;;0.57;;
13785;SDS011;47474;48.824;9.384;2023-05-10T01:31:30;0.60;;;0.60;;
13785;SDS011;47474;48.824;9.384;2023-05-10T01:34:06;0.60;;;0.60;;
13785;SDS011;47474;48.824;9.384;2023-05-10T01:36:35;0.70;;;0.70;;
13785;SDS011;47474;48.824;9.384;2023-05-10T01:39:07;0.60;;;0.60;;
13785;SDS011;47474;48.824;9.384;2023-05-10T01:41:40;0.50;;;0.50;;
13785;SDS011;47474;48.824;9.384;2023-05-10T01:44:12;0.57;;;0.57;;
13785;SDS011;47474;48.824;9.384;2023-05-10T01:46:43;0.60;;;0.60;;
13785;SDS011;47474;48.824;9.384;2023-05-10T01:49:19;1.07;;;1.00;;
13785;SDS011;47474;48.824;9.384;2023-05-10T01:51:48;0.90;;;0.90;;
13785;SDS011;47474;48.824;9.384;2023-05-10T01:54:19;1.20;;;0.90;;
13785;SDS011;47474;48.824;9.384;2023-05-10T01:56:46;1.20;;;1.10;;
13785;SDS011;47474;48.824;9.384;2023-05-10T01:59:15;1.77;;;1.20;;
13785;SDS011;47474;48.824;9.384;2023-05-10T02:01:43;3.10;;;1.13;;
13785;SDS011;47474;48.824;9.384;2023-05-10T02:04:11;2.33;;;1.10;;
13785;SDS011;47474;48.824;9.384;2023-05-10T02:06:42;2.00;;;1.30;;
13785;SDS011;47474;48.824;9.384;2023-05-10T02:09:10;0.90;;;0.90;;
13785;SDS011;47474;48.824;9.384;2023-05-10T02:11:37;1.30;;;1.20;;
13785;SDS011;47474;48.824;9.384;2023-05-10T02:14:05;1.37;;;1.27;;
13785;SDS011;47474;48.824;9.384;2023-05-10T02:16:32;2.90;;;1.10;;
13785;SDS011;47474;48.824;9.384;2023-05-10T02:19:01;1.40;;;1.30;;
13785;SDS011;47474;48.824;9.384;2023-05-10T02:21:28;1.60;;;1.10;;
13785;SDS011;47474;48.824;9.384;2023-05-10T02:23:57;1.40;;;1.30;;
13785;SDS011;47474;48.824;9.384;2023-05-10T02:26:25;1.93;;;1.63;;
13785;SDS011;47474;48.824;9.384;2023-05-10T02:28:53;1.10;;;1.00;;
13785;SDS011;47474;48.824;9.384;2023-05-10T02:31:20;1.20;;;1.10;;
13785;SDS011;47474;48.824;9.384;2023-05-10T02:33:46;3.47;;;1.30;;
13785;SDS011;47474;48.824;9.384;2023-05-10T02:36:14;1.37;;;1.27;;
13785;SDS011;47474;48.824;9.384;2023-05-10T02:38:41;1.17;;;1.00;;
13785;SDS011;47474;48.824;9.384;2023-05-10T02:41:10;2.03;;;1.30;;
13785;SDS011;47474;48.824;9.384;2023-05-10T02:43:37;1.47;;;1.10;;
13785;SDS011;47474;48.824;9.384;2023-05-10T02:46:04;1.50;;;1.40;;
13785;SDS011;47474;48.824;9.384;2023-05-10T02:48:30;1.20;;;1.10;;
13785;SDS011;47474;48.824;9.384;2023-05-10T02:51:00;1.47;;;1.10;;
13785;SDS011;47474;48.824;9.384;2023-05-10T02:53:30;1.40;;;1.30;;
13785;SDS011;47474;48.824;9.384;2023-05-10T02:55:58;1.20;;;1.10;;
13785;SDS011;47474;48.824;9.384;2023-05-10T02:58:30;2.27;;;1.27;;
13785;SDS011;47474;48.824;9.384;2023-05-10T03:00:56;2.38;;;1.27;;
13785;SDS011;47474;48.824;9.384;2023-05-10T03:03:23;1.30;;;1.20;;
13785;SDS011;47474;48.824;9.384;2023-05-10T03:05:49;1.30;;;1.20;;
13785;SDS011;47474;48.824;9.384;2023-05-10T03:08:18;1.77;;;1.20;;
13785;SDS011;47474;48.824;9.384;2023-05-10T03:10:50;2.90;;;1.37;;
13785;SDS011;47474;48.824;9.384;2023-05-10T03:13:25;2.00;;;1.40;;
13785;SDS011;47474;48.824;9.384;2023-05-10T03:16:03;1.30;;;1.20;;
13785;SDS011;47474;48.824;9.384;2023-05-10T03:18:37;0.90;;;0.90;;
13785;SDS011;47474;48.824;9.384;2023-05-10T03:21:08;1.20;;;1.00;;
13785;SDS011;47474;48.824;9.384;2023-05-10T03:23:39;1.50;;;1.20;;
13785;SDS011;47474;48.824;9.384;2023-05-10T03:26:07;1.83;;;1.10;;
13785;SDS011;47474;48.824;9.384;2023-05-10T03:28:35;1.30;;;1.20;;
13785;SDS011;47474;48.824;9.384;2023-05-10T03:31:02;2.37;;;1.40;;
13785;SDS011;47474;48.824;9.384;2023-05-10T03:33:30;2.93;;;1.30;;
13785;SDS011;47474;48.824;9.384;2023-05-10T03:35:57;2.17;;;1.30;;
13785;SDS011;47474;48.824;9.384;2023-05-10T03:38:24;3.43;;;1.30;;
13785;SDS011;47474;48.824;9.384;2023-05-10T03:40:50;1.40;;;1.30;;
13785;SDS011;47474;48.824;9.384;2023-05-10T03:43:17;2.13;;;1.50;;
13785;SDS011;47474;48.824;9.384;2023-05-10T03:45:45;3.50;;;1.50;;
13785;SDS011;47474;48.824;9.384;2023-05-10T03:48:11;4.73;;;1.77;;
13785;SDS011;47474;48.824;9.384;2023-05-10T03:50:38;2.60;;;1.30;;
13785;SDS011;47474;48.824;9.384;2023-05-10T03:53:05;2.30;;;1.20;;
13785;SDS011;47474;48.824;9.384;2023-05-10T03:55:31;1.47;;;1.37;;
13785;SDS011;47474;48.824;9.384;2023-05-10T03:57:59;4.82;;;1.50;;
13785;SDS011;47474;48.824;9.384;2023-05-10T04:00:26;3.10;;;1.50;;
13785;SDS011;47474;48.824;9.384;2023-05-10T04:02:53;2.57;;;1.50;;
13785;SDS011;47474;48.824;9.384;2023-05-10T04:05:20;5.83;;;1.70;;
13785;SDS011;47474;48.824;9.384;2023-05-10T04:07:46;1.60;;;1.50;;
13785;SDS011;47474;48.824;9.384;2023-05-10T04:10:14;1.60;;;1.50;;
13785;SDS011;47474;48.824;9.384;2023-05-10T04:12:41;3.50;;;1.60;;
13785;SDS011;47474;48.824;9.384;2023-05-10T04:15:07;1.70;;;1.60;;
13785;SDS011;47474;48.824;9.384;2023-05-10T04:17:34;1.63;;;1.53;;
13785;SDS011;47474;48.824;9.384;2023-05-10T04:20:02;1.53;;;1.23;;
13785;SDS011;47474;48.824;9.384;2023-05-10T04:22:30;1.40;;;1.30;;
13785;SDS011;47474;48.824;9.384;2023-05-10T04:24:56;3.30;;;1.70;;
13785;SDS011;47474;48.824;9.384;2023-05-10T04:27:22;1.83;;;1.67;;
13785;SDS011;47474;48.824;9.384;2023-05-10T04:29:49;1.93;;;1.73;;
13785;SDS011;47474;48.824;9.384;2023-05-10T04:32:16;2.03;;;1.60;;
13785;SDS011;47474;48.824;9.384;2023-05-10T04:34:42;1.57;;;1.23;;
13785;SDS011;47474;48.824;9.384;2023-05-10T04:37:10;1.40;;;1.30;;
13785;SDS011;47474;48.824;9.384;2023-05-10T04:39:37;1.60;;;1.27;;
13785;SDS011;47474;48.824;9.384;2023-05-10T04:42:03;3.57;;;3.07;;
13785;SDS011;47474;48.824;9.384;2023-05-10T04:44:31;1.50;;;1.40;;
13785;SDS011;47474;48.824;9.384;2023-05-10T04:46:57;4.30;;;1.50;;
13785;SDS011;47474;48.824;9.384;2023-05-10T04:49:24;1.80;;;1.70;;
13785;SDS011;47474;48.824;9.384;2023-05-10T04:51:51;3.33;;;1.67;;
13785;SDS011;47474;48.824;9.384;2023-05-10T04:54:19;2.77;;;1.70;;
13785;SDS011;47474;48.824;9.384;2023-05-10T04:56:45;2.60;;;1.40;;
13785;SDS011;47474;48.824;9.384;2023-05-10T04:59:12;2.17;;;1.97;;
13785;SDS011;47474;48.824;9.384;2023-05-10T05:01:38;2.20;;;2.00;;
13785;SDS011;47474;48.824;9.384;2023-05-10T05:04:05;1.80;;;1.70;;
13785;SDS011;47474;48.824;9.384;2023-05-10T05:06:32;2.30;;;1.90;;
13785;SDS011;47474;48.824;9.384;2023-05-10T05:08:59;3.43;;;1.70;;
13785;SDS011;47474;48.824;9.384;2023-05-10T05:11:26;2.35;;;1.83;;
13785;SDS011;47474;48.824;9.384;2023-05-10T05:13:53;2.33;;;1.50;;
13785;SDS011;47474;48.824;9.384;2023-05-10T05:16:19;1.50;;;1.40;;
13785;SDS011;47474;48.824;9.384;2023-05-10T05:39:00;1.57;;;1.47;;
13785;SDS011;47474;48.824;9.384;2023-05-10T05:41:26;1.50;;;1.40;;
13785;SDS011;47474;48.824;9.384;2023-05-10T05:43:53;1.83;;;1.73;;
13785;SDS011;47474;48.824;9.384;2023-05-10T05:46:20;2.73;;;1.73;;
13785;SDS011;47474;48.824;9.384;2023-05-10T05:48:46;2.10;;;1.90;;
13785;SDS011;47474;48.824;9.384;2023-05-10T05:51:13;1.77;;;1.67;;
13785;SDS011;47474;48.824;9.384;2023-05-10T05:53:39;1.93;;;1.73;;
13785;SDS011;47474;48.824;9.384;2023-05-10T05:56:07;2.17;;;1.97;;
13785;SDS011;47474;48.824;9.384;2023-05-10T05:58:34;2.73;;;2.30;;
13785;SDS011;47474;48.824;9.384;2023-05-10T06:01:01;2.50;;;2.30;;
13785;SDS011;47474;48.824;9.384;2023-05-10T06:03:27;3.50;;;2.43;;
13785;SDS011;47474;48.824;9.384;2023-05-10T06:05:54;2.47;;;2.27;;
13785;SDS011;47474;48.824;9.384;2023-05-10T06:08:20;2.10;;;2.00;;
13785;SDS011;47474;48.824;9.384;2023-05-10T06:10:47;2.77;;;2.30;;
13785;SDS011;47474;48.824;9.384;2023-05-10T06:13:15;4.05;;;2.08;;
13785;SDS011;47474;48.824;9.384;2023-05-10T06:15:41;3.83;;;2.47;;
13785;SDS011;47474;48.824;9.384;2023-05-10T06:18:08;2.40;;;2.20;;
13785;SDS011;47474;48.824;9.384;2023-05-10T06:20:34;3.10;;;2.10;;
13785;SDS011;47474;48.824;9.384;2023-05-10T06:23:01;2.43;;;2.17;;
13785;SDS011;47474;48.824;9.384;2023-05-10T06:25:27;3.67;;;2.40;;
13785;SDS011;47474;48.824;9.384;2023-05-10T06:27:54;2.47;;;2.17;;
13785;SDS011;47474;48.824;9.384;2023-05-10T06:30:24;2.30;;;1.93;;
13785;SDS011;47474;48.824;9.384;2023-05-10T06:32:53;3.83;;;2.40;;
13785;SDS011;47474;48.824;9.384;2023-05-10T06:35:20;2.30;;;2.10;;
13785;SDS011;47474;48.824;9.384;2023-05-10T06:37:47;4.18;;;2.05;;
13785;SDS011;47474;48.824;9.384;2023-05-10T06:40:14;2.50;;;2.23;;
13785;SDS011;47474;48.824;9.384;2023-05-10T06:42:40;2.37;;;2.10;;
13785;SDS011;47474;48.824;9.384;2023-05-10T06:45:07;3.60;;;2.30;;
13785;SDS011;47474;48.824;9.384;2023-05-10T06:47:36;3.08;;;2.22;;
13785;SDS011;47474;48.824;9.384;2023-05-10T06:50:02;2.92;;;1.80;;
13785;SDS011;47474;48.824;9.384;2023-05-10T06:52:29;4.47;;;2.22;;
13785;SDS011;47474;48.824;9.384;2023-05-10T06:54:55;2.28;;;2.10;;
13785;SDS011;47474;48.824;9.384;2023-05-10T06:57:22;2.05;;;1.95;;
13785;SDS011;47474;48.824;9.384;2023-05-10T06:59:49;2.40;;;2.20;;
13785;SDS011;47474;48.824;9.384;2023-05-10T07:02:16;2.17;;;1.80;;
13785;SDS011;47474;48.824;9.384;2023-05-10T07:04:44;2.22;;;2.03;;
13785;SDS011;47474;48.824;9.384;2023-05-10T07:07:13;1.80;;;1.70;;
13785;SDS011;47474;48.824;9.384;2023-05-10T07:09:39;3.45;;;1.85;;
13785;SDS011;47474;48.824;9.384;2023-05-10T07:12:07;1.85;;;1.75;;
13785;SDS011;47474;48.824;9.384;2023-05-10T07:14:33;2.10;;;1.83;;
13785;SDS011;47474;48.824;9.384;2023-05-10T07:16:59;3.03;;;2.03;;
13785;SDS011;47474;48.824;9.384;2023-05-10T07:19:26;2.03;;;1.70;;
13785;SDS011;47474;48.824;9.384;2023-05-10T07:21:55;2.00;;;1.80;;
13785;SDS011;47474;48.824;9.384;2023-05-10T07:24:22;2.20;;;2.00;;
13785;SDS011;47474;48.824;9.384;2023-05-10T07:26:49;1.83;;;1.73;;
13785;SDS011;47474;48.824;9.384;2023-05-10T07:29:15;2.07;;;1.90;;
13785;SDS011;47474;48.824;9.384;2023-05-10T07:31:42;2.10;;;1.90;;
13785;SDS011;47474;48.824;9.384;2023-05-10T07:34:09;2.05;;;1.70;;
13785;SDS011;47474;48.824;9.384;2023-05-10T07:36:35;4.55;;;1.63;;
13785;SDS011;47474;48.824;9.384;2023-05-10T07:39:03;2.73;;;1.80;;
13785;SDS011;47474;48.824;9.384;2023-05-10T07:41:30;2.80;;;1.73;;
13785;SDS011;47474;48.824;9.384;2023-05-10T07:43:57;2.08;;;1.67;;
13785;SDS011;47474;48.824;9.384;2023-05-10T07:46:24;1.90;;;1.40;;
13785;SDS011;47474;48.824;9.384;2023-05-10T07:48:50;1.55;;;1.40;;
13785;SDS011;47474;48.824;9.384;2023-05-10T07:51:17;2.10;;;1.90;;
13785;SDS011;47474;48.824;9.384;2023-05-10T07:53:43;1.50;;;1.40;;
13785;SDS011;47474;48.824;9.384;2023-05-10T07:56:21;1.30;;;1.20;;
13785;SDS011;47474;48.824;9.384;2023-05-10T07:58:50;1.63;;;1.52;;
13785;SDS011;47474;48.824;9.384;2023-05-10T08:01:16;1.50;;;1.40;;
13785;SDS011;47474;48.824;9.384;2023-05-10T08:03:43;1.58;;;1.40;;
13785;SDS011;47474;48.824;9.384;2023-05-10T08:06:09;1.50;;;1.40;;
13785;SDS011;47474;48.824;9.384;2023-05-10T08:08:36;2.17;;;1.60;;
13785;SDS011;47474;48.824;9.384;2023-05-10T08:11:05;1.75;;;1.60;;
13785;SDS011;47474;48.824;9.384;2023-05-10T08:13:34;2.22;;;1.45;;
13785;SDS011;47474;48.824;9.384;2023-05-10T08:16:00;1.60;;;1.50;;
13785;SDS011;47474;48.824;9.384;2023-05-10T08:18:27;2.28;;;1.80;;
13785;SDS011;47474;48.824;9.384;2023-05-10T08:20:53;1.98;;;1.55;;
13785;SDS011;47474;48.824;9.384;2023-05-10T08:23:20;1.50;;;1.40;;
13785;SDS011;47474;48.824;9.384;2023-05-10T08:25:46;2.17;;;1.70;;
13785;SDS011;47474;48.824;9.384;2023-05-10T08:28:13;1.73;;;1.63;;
13785;SDS011;47474;48.824;9.384;2023-05-10T08:30:41;1.60;;;1.50;;
13785;SDS011;47474;48.824;9.384;2023-05-10T08:33:08;2.70;;;1.60;;
13785;SDS011;47474;48.824;9.384;2023-05-10T08:35:34;1.48;;;1.30;;
13785;SDS011;47474;48.824;9.384;2023-05-10T08:38:01;1.52;;;1.10;;
13785;SDS011;47474;48.824;9.384;2023-05-10T08:40:27;1.58;;;1.13;;
13785;SDS011;47474;48.824;9.384;2023-05-10T08:42:55;0.93;;;0.93;;
13785;SDS011;47474;48.824;9.384;2023-05-10T08:45:24;2.88;;;1.17;;
13785;SDS011;47474;48.824;9.384;2023-05-10T08:47:54;1.83;;;1.20;;
13785;SDS011;47474;48.824;9.384;2023-05-10T08:50:20;1.50;;;1.13;;
13785;SDS011;47474;48.824;9.384;2023-05-10T08:52:47;2.78;;;1.20;;
13785;SDS011;47474;48.824;9.384;2023-05-10T08:55:15;1.98;;;1.20;;
13785;SDS011;47474;48.824;9.384;2023-05-10T08:57:42;1.73;;;1.13;;
13785;SDS011;47474;48.824;9.384;2023-05-10T09:00:09;1.63;;;1.40;;
13785;SDS011;47474;48.824;9.384;2023-05-10T09:02:36;1.15;;;1.00;;
13785;SDS011;47474;48.824;9.384;2023-05-10T09:05:05;1.08;;;0.98;;
13785;SDS011;47474;48.824;9.384;2023-05-10T09:07:32;3.60;;;1.23;;
13785;SDS011;47474;48.824;9.384;2023-05-10T09:09:59;0.82;;;0.82;;
13785;SDS011;47474;48.824;9.384;2023-05-10T09:12:25;1.10;;;0.82;;
13785;SDS011;47474;48.824;9.384;2023-05-10T09:14:52;0.70;;;0.70;;
13785;SDS011;47474;48.824;9.384;2023-05-10T09:17:20;0.85;;;0.75;;
13785;SDS011;47474;48.824;9.384;2023-05-10T09:19:47;0.70;;;0.70;;
13785;SDS011;47474;48.824;9.384;2023-05-10T09:22:15;0.80;;;0.80;;
13785;SDS011;47474;48.824;9.384;2023-05-10T09:24:42;1.27;;;0.88;;
13785;SDS011;47474;48.824;9.384;2023-05-10T09:27:10;0.63;;;0.63;;
13785;SDS011;47474;48.824;9.384;2023-05-10T09:29:39;0.80;;;0.80;;
13785;SDS011;47474;48.824;9.384;2023-05-10T09:32:06;0.90;;;0.70;;
13785;SDS011;47474;48.824;9.384;2023-05-10T09:34:32;1.80;;;0.88;;
13785;SDS011;47474;48.824;9.384;2023-05-10T09:37:00;0.82;;;0.82;;
13785;SDS011;47474;48.824;9.384;2023-05-10T09:39:32;1.52;;;0.88;;
13785;SDS011;47474;48.824;9.384;2023-05-10T09:42:01;0.50;;;0.50;;
13785;SDS011;47474;48.824;9.384;2023-05-10T09:44:29;1.50;;;0.70;;
13785;SDS011;47474;48.824;9.384;2023-05-10T09:46:56;0.70;;;0.70;;
13785;SDS011;47474;48.824;9.384;2023-05-10T09:49:23;1.13;;;0.60;;
13785;SDS011;47474;48.824;9.384;2023-05-10T09:52:02;0.80;;;0.70;;
13785;SDS011;47474;48.824;9.384;2023-05-10T09:54:30;2.00;;;0.80;;
13785;SDS011;47474;48.824;9.384;2023-05-10T09:56:58;1.38;;;0.70;;
13785;SDS011;47474;48.824;9.384;2023-05-10T09:59:25;0.55;;;0.55;;
13785;SDS011;47474;48.824;9.384;2023-05-10T10:01:52;0.60;;;0.60;;
13785;SDS011;47474;48.824;9.384;2023-05-10T10:04:19;0.80;;;0.80;;
13785;SDS011;47474;48.824;9.384;2023-05-10T10:06:46;0.82;;;0.82;;
13785;SDS011;47474;48.824;9.384;2023-05-10T10:09:12;1.08;;;0.80;;
13785;SDS011;47474;48.824;9.384;2023-05-10T10:11:40;0.80;;;0.80;;
13785;SDS011;47474;48.824;9.384;2023-05-10T10:14:07;0.98;;;0.80;;
13785;SDS011;47474;48.824;9.384;2023-05-10T10:16:34;0.90;;;0.90;;
13785;SDS011;47474;48.824;9.384;2023-05-10T10:19:00;0.70;;;0.68;;
13785;SDS011;47474;48.824;9.384;2023-05-10T10:21:27;1.42;;;0.70;;
13785;SDS011;47474;48.824;9.384;2023-05-10T10:23:53;1.33;;;1.00;;
13785;SDS011;47474;48.824;9.384;2023-05-10T10:26:20;0.75;;;0.70;;
13785;SDS011;47474;48.824;9.384;2023-05-10T10:28:49;1.48;;;0.77;;
13785;SDS011;47474;48.824;9.384;2023-05-10T10:31:23;0.80;;;0.80;;
13785;SDS011;47474;48.824;9.384;2023-05-10T10:33:59;0.75;;;0.75;;
13785;SDS011;47474;48.824;9.384;2023-05-10T10:36:26;2.45;;;1.10;;
13785;SDS011;47474;48.824;9.384;2023-05-10T10:39:02;1.42;;;0.70;;
13785;SDS011;47474;48.824;9.384;2023-05-10T10:41:36;1.20;;;0.80;;
13785;SDS011;47474;48.824;9.384;2023-05-10T10:44:25;0.70;;;0.70;;
13785;SDS011;47474;48.824;9.384;2023-05-10T10:47:02;1.25;;;0.77;;
13785;SDS011;47474;48.824;9.384;2023-05-10T10:49:38;1.42;;;0.73;;
13785;SDS011;47474;48.824;9.384;2023-05-10T10:52:15;1.48;;;0.80;;
13785;SDS011;47474;48.824;9.384;2023-05-10T10:54:49;0.90;;;0.60;;
13785;SDS011;47474;48.824;9.384;2023-05-10T10:57:18;1.20;;;0.90;;
13785;SDS011;47474;48.824;9.384;2023-05-10T10:59:46;0.55;;;0.55;;
13785;SDS011;47474;48.824;9.384;2023-05-10T11:08:07;1.25;;;0.63;;
13785;SDS011;47474;48.824;9.384;2023-05-10T11:10:35;0.70;;;0.70;;
13785;SDS011;47474;48.824;9.384;2023-05-10T11:13:02;0.75;;;0.50;;
13785;SDS011;47474;48.824;9.384;2023-05-10T11:15:31;0.70;;;0.60;;
13785;SDS011;47474;48.824;9.384;2023-05-10T11:18:00;0.55;;;0.55;;
13785;SDS011;47474;48.824;9.384;2023-05-10T11:20:42;0.77;;;0.60;;
13785;SDS011;47474;48.824;9.384;2023-05-10T11:23:12;1.70;;;0.93;;
13785;SDS011;47474;48.824;9.384;2023-05-10T11:25:41;0.73;;;0.73;;
13785;SDS011;47474;48.824;9.384;2023-05-10T11:28:08;1.13;;;0.85;;
13785;SDS011;47474;48.824;9.384;2023-05-10T11:30:35;1.77;;;0.80;;
13785;SDS011;47474;48.824;9.384;2023-05-10T11:33:03;0.52;;;0.52;;
13785;SDS011;47474;48.824;9.384;2023-05-10T11:35:30;2.63;;;1.15;;
13785;SDS011;47474;48.824;9.384;2023-05-10T11:37:56;0.88;;;0.80;;
13785;SDS011;47474;48.824;9.384;2023-05-10T11:40:23;0.73;;;0.73;;
13785;SDS011;47474;48.824;9.384;2023-05-10T11:42:49;2.35;;;0.82;;
13785;SDS011;47474;48.824;9.384;2023-05-10T11:45:16;0.65;;;0.60;;
13785;SDS011;47474;48.824;9.384;2023-05-10T11:47:42;1.38;;;0.90;;
13785;SDS011;47474;48.824;9.384;2023-05-10T11:50:11;0.80;;;0.80;;
13785;SDS011;47474;48.824;9.384;2023-05-10T11:52:38;0.85;;;0.85;;
13785;SDS011;47474;48.824;9.384;2023-05-10T11:55:05;0.90;;;0.80;;
13785;SDS011;47474;48.824;9.384;2023-05-10T11:57:32;1.70;;;1.02;;
13785;SDS011;47474;48.824;9.384;2023-05-10T11:59:58;1.08;;;0.98;;
13785;SDS011;47474;48.824;9.384;2023-05-10T12:02:25;0.82;;;0.82;;
13785;SDS011;47474;48.824;9.384;2023-05-10T12:04:51;3.25;;;0.90;;
13785;SDS011;47474;48.824;9.384;2023-05-10T12:07:19;1.90;;;0.90;;
13785;SDS011;47474;48.824;9.384;2023-05-10T12:12:40;1.25;;;0.90;;
13785;SDS011;47474;48.824;9.384;2023-05-10T12:15:11;0.80;;;0.63;;
13785;SDS011;47474;48.824;9.384;2023-05-10T12:17:38;1.00;;;0.90;;
13785;SDS011;47474;48.824;9.384;2023-05-10T12:20:15;1.52;;;1.10;;
13785;SDS011;47474;48.824;9.384;2023-05-10T12:22:48;1.10;;;0.98;;
13785;SDS011;47474;48.824;9.384;2023-05-10T12:25:16;1.95;;;1.10;;
13785;SDS011;47474;48.824;9.384;2023-05-10T12:27:50;1.15;;;1.05;;
13785;SDS011;47474;48.824;9.384;2023-05-10T12:30:20;2.97;;;1.40;;
13785;SDS011;47474;48.824;9.384;2023-05-10T12:32:47;1.40;;;1.20;;
13785;SDS011;47474;48.824;9.384;2023-05-10T12:35:14;2.20;;;1.20;;
13785;SDS011;47474;48.824;9.384;2023-05-10T12:37:45;1.63;;;1.00;;
13785;SDS011;47474;48.824;9.384;2023-05-10T12:40:13;2.42;;;1.23;;
13785;SDS011;47474;48.824;9.384;2023-05-10T12:42:40;3.67;;;1.30;;
13785;SDS011;47474;48.824;9.384;2023-05-10T12:45:07;2.30;;;1.30;;
13785;SDS011;47474;48.824;9.384;2023-05-10T12:47:34;1.60;;;1.33;;
13785;SDS011;47474;48.824;9.384;2023-05-10T12:50:01;2.47;;;1.00;;
13785;SDS011;47474;48.824;9.384;2023-05-10T12:52:28;1.10;;;1.00;;
13785;SDS011;47474;48.824;9.384;2023-05-10T12:54:58;1.50;;;1.20;;
13785;SDS011;47474;48.824;9.384;2023-05-10T12:57:24;1.58;;;0.88;;
13785;SDS011;47474;48.824;9.384;2023-05-10T12:59:51;1.75;;;0.80;;
13785;SDS011;47474;48.824;9.384;2023-05-10T13:02:17;2.20;;;0.98;;
13785;SDS011;47474;48.824;9.384;2023-05-10T13:04:45;2.05;;;1.10;;
13785;SDS011;47474;48.824;9.384;2023-05-10T13:07:12;2.80;;;1.48;;
13785;SDS011;47474;48.824;9.384;2023-05-10T13:09:38;2.13;;;1.08;;
13785;SDS011;47474;48.824;9.384;2023-05-10T13:12:06;2.25;;;1.20;;
13785;SDS011;47474;48.824;9.384;2023-05-10T13:14:33;1.38;;;1.05;;
13785;SDS011;47474;48.824;9.384;2023-05-10T13:16:59;1.67;;;1.02;;
13785;SDS011;47474;48.824;9.384;2023-05-10T13:19:26;2.65;;;1.02;;
13785;SDS011;47474;48.824;9.384;2023-05-10T13:21:52;1.75;;;1.20;;
13785;SDS011;47474;48.824;9.384;2023-05-10T13:24:19;2.83;;;1.30;;
13785;SDS011;47474;48.824;9.384;2023-05-10T13:26:46;0.90;;;0.80;;
13785;SDS011;47474;48.824;9.384;2023-05-10T13:29:13;1.08;;;0.93;;
13785;SDS011;47474;48.824;9.384;2023-05-10T13:31:42;1.52;;;1.38;;
13785;SDS011;47474;48.824;9.384;2023-05-10T13:34:08;1.45;;;0.93;;
13785;SDS011;47474;48.824;9.384;2023-05-10T13:36:35;1.10;;;1.00;;
13785;SDS011;47474;48.824;9.384;2023-05-10T13:39:01;1.92;;;0.88;;
13785;SDS011;47474;48.824;9.384;2023-05-10T13:41:30;1.73;;;0.88;;
13785;SDS011;47474;48.824;9.384;2023-05-10T13:43:56;2.25;;;1.00;;
13785;SDS011;47474;48.824;9.384;2023-05-10T13:46:24;1.67;;;0.95;;
13785;SDS011;47474;48.824;9.384;2023-05-10T13:48:50;1.35;;;1.05;;
13785;SDS011;47474;48.824;9.384;2023-05-10T13:51:17;2.25;;;1.15;;
13785;SDS011;47474;48.824;9.384;2023-05-10T13:53:43;1.75;;;1.10;;
13785;SDS011;47474;48.824;9.384;2023-05-10T13:56:12;0.90;;;0.77;;
13785;SDS011;47474;48.824;9.384;2023-05-10T13:58:38;2.33;;;1.13;;
13785;SDS011;47474;48.824;9.384;2023-05-10T14:01:05;1.27;;;1.10;;
13785;SDS011;47474;48.824;9.384;2023-05-10T14:03:33;2.28;;;1.02;;
13785;SDS011;47474;48.824;9.384;2023-05-10T14:05:59;2.33;;;1.23;;
13785;SDS011;47474;48.824;9.384;2023-05-10T14:08:26;2.95;;;1.20;;
13785;SDS011;47474;48.824;9.384;2023-05-10T14:10:53;0.90;;;0.90;;
13785;SDS011;47474;48.824;9.384;2023-05-10T14:13:21;1.08;;;1.00;;
13785;SDS011;47474;48.824;9.384;2023-05-10T14:15:47;2.15;;;0.95;;
13785;SDS011;47474;48.824;9.384;2023-05-10T14:18:14;1.45;;;1.10;;
13785;SDS011;47474;48.824;9.384;2023-05-10T14:20:42;1.45;;;0.95;;
13785;SDS011;47474;48.824;9.384;2023-05-10T14:23:08;2.00;;;1.30;;
13785;SDS011;47474;48.824;9.384;2023-05-10T14:25:35;1.70;;;1.10;;
13785;SDS011;47474;48.824;9.384;2023-05-10T14:28:02;3.40;;;1.20;;
13785;SDS011;47474;48.824;9.384;2023-05-10T14:30:29;2.25;;;1.25;;
13785;SDS011;47474;48.824;9.384;2023-05-10T14:32:57;1.67;;;1.05;;
13785;SDS011;47474;48.824;9.384;2023-05-10T14:35:26;2.40;;;1.10;;
13785;SDS011;47474;48.824;9.384;2023-05-10T14:37:53;1.95;;;1.00;;
13785;SDS011;47474;48.824;9.384;2023-05-10T14:40:20;1.45;;;1.00;;
13785;SDS011;47474;48.824;9.384;2023-05-10T14:42:47;2.45;;;1.10;;
13785;SDS011;47474;48.824;9.384;2023-05-10T14:45:14;1.83;;;1.00;;
13785;SDS011;47474;48.824;9.384;2023-05-10T14:47:40;1.38;;;0.93;;
13785;SDS011;47474;48.824;9.384;2023-05-10T14:50:07;2.45;;;1.02;;
13785;SDS011;47474;48.824;9.384;2023-05-10T14:52:34;1.48;;;1.02;;
13785;SDS011;47474;48.824;9.384;2023-05-10T14:55:03;2.72;;;1.10;;
13785;SDS011;47474;48.824;9.384;2023-05-10T14:57:30;2.85;;;1.02;;
13785;SDS011;47474;48.824;9.384;2023-05-10T14:59:57;2.22;;;1.50;;
13785;SDS011;47474;48.824;9.384;2023-05-10T15:02:23;1.65;;;1.30;;
13785;SDS011;47474;48.824;9.384;2023-05-10T15:04:50;1.38;;;0.98;;
13785;SDS011;47474;48.824;9.384;2023-05-10T15:07:16;2.45;;;0.70;;
13785;SDS011;47474;48.824;9.384;2023-05-10T15:09:43;1.75;;;1.20;;
13785;SDS011;47474;48.824;9.384;2023-05-10T15:12:11;4.22;;;1.10;;
13785;SDS011;47474;48.824;9.384;2023-05-10T15:14:38;0.90;;;0.90;;
13785;SDS011;47474;48.824;9.384;2023-05-10T15:17:06;2.88;;;1.00;;
13785;SDS011;47474;48.824;9.384;2023-05-10T15:19:32;0.82;;;0.80;;
13785;SDS011;47474;48.824;9.384;2023-05-10T15:21:59;1.20;;;0.98;;